createdAt,value
2019-04-04T00:01:53.091Z,11.00
2019-04-04T00:03:54.442Z,11.00
2019-04-04T00:05:56.644Z,11.00
2019-04-04T00:08:00.137Z,10.90
2019-04-04T00:10:04.661Z,10.90
2019-04-04T00:12:08.042Z,10.90
2019-04-04T00:14:12.744Z,10.90
2019-04-04T00:16:15.615Z,10.90
2019-04-04T00:18:16.308Z,10.90
2019-04-04T00:20:17.654Z,10.80
2019-04-04T00:22:19.043Z,10.70
2019-04-04T00:24:20.396Z,10.70
2019-04-04T00:26:21.738Z,10.70
2019-04-04T00:28:23.115Z,10.70
2019-04-04T00:30:24.469Z,10.60
2019-04-04T00:32:25.817Z,10.60
2019-04-04T00:34:28.156Z,10.60
2019-04-04T00:36:30.069Z,10.60
2019-04-04T00:38:31.396Z,10.60
2019-04-04T00:40:32.778Z,10.60
2019-04-04T00:42:34.260Z,10.50
2019-04-04T00:44:35.610Z,10.50
2019-04-04T00:46:36.955Z,10.40
2019-04-04T00:48:38.323Z,10.40
2019-04-04T00:50:39.743Z,10.40
2019-04-04T00:52:41.519Z,10.40
2019-04-04T00:54:44.785Z,10.30
2019-04-04T00:56:46.913Z,10.40
2019-04-04T00:58:51.680Z,10.30
2019-04-04T01:00:52.978Z,10.30
2019-04-04T01:02:58.295Z,10.30
2019-04-04T01:05:01.311Z,10.30
2019-04-04T01:07:02.998Z,10.20
2019-04-04T01:09:11.745Z,10.20
2019-04-04T01:11:09.220Z,10.20
2019-04-04T01:13:10.581Z,10.20
2019-04-04T01:15:12.125Z,10.30
2019-04-04T01:17:13.508Z,10.20
2019-04-04T01:19:14.881Z,10.10
2019-04-04T01:21:16.247Z,10.10
2019-04-04T01:23:17.599Z,10.00
2019-04-04T01:25:18.975Z,10.00
2019-04-04T01:27:20.365Z,10.00
2019-04-04T01:29:21.729Z,10.00
2019-04-04T01:31:23.104Z,10.00
2019-04-04T01:33:24.481Z,10.00
2019-04-04T01:35:25.847Z,10.00
2019-04-04T01:37:27.883Z,9.90
2019-04-04T01:39:31.231Z,9.80
2019-04-04T01:41:35.863Z,9.80
2019-04-04T01:43:35.830Z,9.70
2019-04-04T01:45:37.224Z,9.60
2019-04-04T01:47:38.695Z,9.60
2019-04-04T01:49:40.036Z,9.50
2019-04-04T01:51:41.386Z,9.50
2019-04-04T01:53:42.774Z,9.40
2019-04-04T01:55:44.134Z,9.40
2019-04-04T01:57:45.486Z,9.30
2019-04-04T01:59:46.861Z,9.10
2019-04-04T02:01:48.209Z,9.10
2019-04-04T02:03:49.545Z,9.00
2019-04-04T02:05:50.925Z,8.80
2019-04-04T02:07:52.277Z,8.80
2019-04-04T02:09:53.856Z,8.80
2019-04-04T02:11:55.202Z,8.70
2019-04-04T02:13:56.644Z,8.70
2019-04-04T02:15:58.027Z,8.80
2019-04-04T02:17:59.407Z,8.80
2019-04-04T02:20:00.747Z,8.70
2019-04-04T02:22:02.533Z,8.70
2019-04-04T02:24:03.878Z,8.70
2019-04-04T02:26:05.881Z,8.80
2019-04-04T02:28:08.888Z,8.80
2019-04-04T02:30:14.586Z,8.70
2019-04-04T02:32:16.125Z,8.70
2019-04-04T02:34:17.479Z,8.70
2019-04-04T02:36:18.858Z,8.70
2019-04-04T02:38:20.337Z,8.60
2019-04-04T02:40:21.688Z,8.60
2019-04-04T02:42:23.044Z,8.60
2019-04-04T02:44:24.435Z,8.50
2019-04-04T02:46:25.796Z,8.60
2019-04-04T02:48:27.152Z,8.60
2019-04-04T02:50:28.546Z,8.60
2019-04-04T02:52:29.919Z,8.60
2019-04-04T02:54:31.280Z,8.60
2019-04-04T02:56:34.847Z,8.60
2019-04-04T02:58:36.127Z,8.50
2019-04-04T03:00:37.553Z,8.50
2019-04-04T03:02:39.029Z,8.50
2019-04-04T03:04:40.473Z,8.40
2019-04-04T03:06:41.966Z,8.50
2019-04-04T03:08:43.352Z,8.50
2019-04-04T03:10:47.700Z,8.50
2019-04-04T03:12:48.102Z,8.40
2019-04-04T03:14:50.727Z,8.40
2019-04-04T03:16:56.365Z,8.40
2019-04-04T03:18:55.603Z,8.40
2019-04-04T03:20:56.950Z,8.40
2019-04-04T03:23:00.513Z,8.40
2019-04-04T03:25:01.581Z,8.30
2019-04-04T03:27:03.097Z,8.30
2019-04-04T03:29:05.756Z,8.30
2019-04-04T03:31:07.311Z,8.30
2019-04-04T03:33:08.711Z,8.20
2019-04-04T03:35:10.078Z,8.20
2019-04-04T03:37:12.428Z,8.20
2019-04-04T03:39:14.135Z,8.20
2019-04-04T03:41:15.488Z,8.10
2019-04-04T03:43:16.939Z,8.10
2019-04-04T03:45:18.412Z,8.00
2019-04-04T03:47:19.756Z,8.00
2019-04-04T03:49:24.295Z,7.90
2019-04-04T03:51:24.439Z,7.90
2019-04-04T03:53:26.015Z,7.90
2019-04-04T03:55:28.505Z,7.80
2019-04-04T03:57:30.248Z,7.80
2019-04-04T03:59:32.510Z,7.80
2019-04-04T04:01:34.551Z,7.80
2019-04-04T04:03:35.898Z,7.80
2019-04-04T04:05:40.636Z,7.70
2019-04-04T04:07:40.554Z,7.60
2019-04-04T04:09:41.940Z,7.50
2019-04-04T04:11:43.306Z,7.40
2019-04-04T04:13:49.004Z,7.40
2019-04-04T04:15:48.054Z,7.30
2019-04-04T04:17:49.403Z,7.30
2019-04-04T04:19:50.790Z,7.30
2019-04-04T04:21:52.172Z,7.30
2019-04-04T04:23:56.247Z,7.30
2019-04-04T04:25:56.851Z,7.30
2019-04-04T04:27:58.196Z,7.30
2019-04-04T04:30:00.231Z,7.30
2019-04-04T04:32:02.848Z,7.30
2019-04-04T04:34:04.203Z,7.30
2019-04-04T04:36:09.327Z,7.20
2019-04-04T04:38:08.890Z,7.20
2019-04-04T04:40:13.848Z,7.20
2019-04-04T04:42:14.609Z,7.20
2019-04-04T04:44:15.970Z,7.20
2019-04-04T04:46:18.068Z,7.20
2019-04-04T04:48:19.748Z,7.10
2019-04-04T04:50:21.096Z,7.10
2019-04-04T04:52:22.444Z,7.20
2019-04-04T04:54:23.848Z,7.20
2019-04-04T04:56:25.224Z,7.10
2019-04-04T04:58:26.575Z,7.20
2019-04-04T05:00:28.253Z,7.10
2019-04-04T05:02:29.627Z,7.10
2019-04-04T05:04:30.986Z,7.10
2019-04-04T05:06:35.298Z,7.20
2019-04-04T05:08:35.656Z,7.10
2019-04-04T05:10:37.062Z,7.10
2019-04-04T05:12:38.438Z,7.10
2019-04-04T05:14:39.800Z,7.10
2019-04-04T05:16:41.143Z,7.10
2019-04-04T05:18:42.528Z,7.00
2019-04-04T05:20:43.889Z,7.10
2019-04-04T05:22:45.293Z,7.10
2019-04-04T05:24:49.131Z,7.10
2019-04-04T05:26:49.924Z,7.20
2019-04-04T05:28:51.279Z,7.20
2019-04-04T05:30:52.694Z,7.20
2019-04-04T05:32:56.386Z,7.20
2019-04-04T05:34:57.304Z,7.30
2019-04-04T05:36:58.660Z,7.30
2019-04-04T05:39:00.006Z,7.30
2019-04-04T05:41:01.384Z,7.30
2019-04-04T05:43:04.172Z,7.40
2019-04-04T05:45:06.913Z,7.40
2019-04-04T05:47:08.391Z,7.40
2019-04-04T05:49:09.776Z,7.40
2019-04-04T05:51:11.132Z,7.50
2019-04-04T05:53:12.504Z,7.50
2019-04-04T05:55:13.903Z,7.50
2019-04-04T05:57:15.253Z,7.60
2019-04-04T05:59:16.609Z,7.60
2019-04-04T06:01:21.983Z,7.70
2019-04-04T06:03:23.320Z,7.70
2019-04-04T06:05:26.877Z,7.80
2019-04-04T06:07:27.982Z,7.80
2019-04-04T06:09:29.363Z,7.90
2019-04-04T06:11:30.744Z,8.00
2019-04-04T06:13:32.118Z,8.00
2019-04-04T06:15:33.490Z,8.10
2019-04-04T06:17:34.836Z,8.20
2019-04-04T06:19:36.192Z,8.30
2019-04-04T06:21:37.586Z,8.40
2019-04-04T06:23:38.947Z,8.50
2019-04-04T06:25:40.298Z,8.60
2019-04-04T06:27:41.707Z,8.70
2019-04-04T06:29:43.034Z,8.80
2019-04-04T06:31:44.387Z,8.80
2019-04-04T06:33:45.805Z,8.90
2019-04-04T06:35:47.982Z,9.10
2019-04-04T06:37:51.340Z,9.10
2019-04-04T06:39:54.362Z,9.20
2019-04-04T06:41:55.964Z,9.30
2019-04-04T06:43:57.317Z,9.40
2019-04-04T06:45:58.699Z,9.50
2019-04-04T06:48:00.165Z,9.60
2019-04-04T06:50:01.636Z,9.70
2019-04-04T06:52:03.139Z,9.80
2019-04-04T06:54:04.593Z,9.90
2019-04-04T06:56:05.968Z,10.00
2019-04-04T06:58:09.423Z,10.10
2019-04-04T07:00:11.198Z,10.20
2019-04-04T07:02:12.568Z,10.30
2019-04-04T07:04:13.913Z,10.40
2019-04-04T07:06:15.261Z,10.50
2019-04-04T07:08:16.633Z,10.50
2019-04-04T07:10:20.940Z,10.60
2019-04-04T07:12:28.119Z,10.70
2019-04-04T07:14:24.575Z,10.80
2019-04-04T07:16:25.923Z,10.80
2019-04-04T07:18:27.407Z,10.90
2019-04-04T07:20:28.852Z,11.00
2019-04-04T07:22:30.227Z,11.10
2019-04-04T07:24:31.772Z,11.20
2019-04-04T07:26:33.196Z,11.20
2019-04-04T07:28:34.594Z,11.30
2019-04-04T07:30:35.941Z,11.40
2019-04-04T07:32:40.710Z,11.40
2019-04-04T07:34:40.573Z,11.50
2019-04-04T07:36:41.931Z,11.70
2019-04-04T07:38:43.326Z,12.00
2019-04-04T07:40:44.681Z,12.20
2019-04-04T07:42:47.902Z,12.50
2019-04-04T07:44:49.418Z,12.80
2019-04-04T07:46:50.763Z,13.10
2019-04-04T07:48:52.352Z,13.30
2019-04-04T07:50:53.898Z,13.50
2019-04-04T07:52:55.282Z,13.80
2019-04-04T07:54:56.643Z,13.90
2019-04-04T07:56:57.997Z,14.00
2019-04-04T07:58:59.995Z,14.10
2019-04-04T08:01:01.357Z,14.30
2019-04-04T08:03:02.708Z,14.40
2019-04-04T08:05:07.485Z,14.50
2019-04-04T08:07:08.846Z,14.70
2019-04-04T08:09:10.224Z,14.90
2019-04-04T08:11:13.334Z,14.60
2019-04-04T08:13:14.901Z,14.60
2019-04-04T08:15:16.332Z,14.80
2019-04-04T08:17:19.046Z,15.00
2019-04-04T08:19:20.769Z,15.30
2019-04-04T08:21:22.118Z,15.30
2019-04-04T08:23:23.571Z,15.10
2019-04-04T08:25:24.946Z,15.00
2019-04-04T08:27:26.350Z,14.70
2019-04-04T08:29:27.696Z,14.80
2019-04-04T08:31:29.082Z,14.90
2019-04-04T08:33:30.424Z,15.00
2019-04-04T08:35:31.810Z,15.00
2019-04-04T08:37:33.170Z,14.90
2019-04-04T08:39:34.541Z,14.90
2019-04-04T08:41:36.103Z,15.00
2019-04-04T08:43:37.469Z,15.00
2019-04-04T08:45:38.833Z,15.30
2019-04-04T08:47:40.219Z,15.60
2019-04-04T08:49:41.560Z,15.90
2019-04-04T08:51:42.911Z,16.20
2019-04-04T08:53:44.313Z,16.00
2019-04-04T08:55:45.662Z,15.90
2019-04-04T08:57:47.007Z,15.70
2019-04-04T08:59:48.408Z,15.60
2019-04-04T09:01:49.734Z,15.80
2019-04-04T09:03:51.118Z,15.80
2019-04-04T09:05:52.465Z,15.70
2019-04-04T09:07:53.816Z,15.90
2019-04-04T09:09:55.278Z,16.00
2019-04-04T09:11:56.767Z,16.10
2019-04-04T09:13:58.126Z,16.10
2019-04-04T09:15:59.526Z,16.30
2019-04-04T09:18:00.874Z,16.40
2019-04-04T09:20:05.541Z,16.40
2019-04-04T09:22:10.625Z,16.40
2019-04-04T09:24:10.207Z,16.50
2019-04-04T09:26:11.611Z,16.80
2019-04-04T09:28:13.024Z,17.10
2019-04-04T09:30:15.416Z,17.30
2019-04-04T09:32:16.761Z,17.60
2019-04-04T09:34:18.121Z,17.70
2019-04-04T09:36:19.499Z,17.80
2019-04-04T09:38:20.847Z,17.80
2019-04-04T09:40:22.227Z,17.70
2019-04-04T09:42:23.599Z,17.80
2019-04-04T09:44:24.960Z,18.00
2019-04-04T09:46:26.395Z,18.00
2019-04-04T09:48:27.736Z,18.10
2019-04-04T09:50:29.077Z,18.40
2019-04-04T09:52:30.447Z,18.60
2019-04-04T09:54:31.788Z,18.60
2019-04-04T09:56:33.161Z,18.60
2019-04-04T09:58:34.533Z,18.70
2019-04-04T10:00:35.883Z,19.00
2019-04-04T10:02:37.228Z,19.10
2019-04-04T10:04:38.810Z,19.00
2019-04-04T10:06:40.160Z,19.10
2019-04-04T10:08:41.505Z,19.00
2019-04-04T10:10:42.976Z,19.10
2019-04-04T10:12:44.327Z,19.00
2019-04-04T10:14:45.673Z,19.10
2019-04-04T10:16:47.047Z,19.20
2019-04-04T10:18:48.392Z,19.40
2019-04-04T10:20:49.753Z,19.30
2019-04-04T10:22:51.124Z,19.30
2019-04-04T10:24:52.482Z,19.50
2019-04-04T10:26:53.855Z,19.70
2019-04-04T10:28:55.238Z,19.60
2019-04-04T10:30:56.598Z,19.60
2019-04-04T10:32:57.933Z,19.70
2019-04-04T10:34:59.320Z,19.80
2019-04-04T10:37:00.663Z,19.90
2019-04-04T10:39:04.047Z,20.00
2019-04-04T10:41:05.391Z,20.00
2019-04-04T10:43:06.755Z,20.20
2019-04-04T10:45:08.238Z,20.30
2019-04-04T10:47:09.615Z,20.40
2019-04-04T10:49:11.182Z,20.40
2019-04-04T10:51:12.582Z,20.40
2019-04-04T10:53:13.938Z,20.40
2019-04-04T10:55:15.323Z,20.70
2019-04-04T10:57:16.678Z,20.80
2019-04-04T10:59:18.062Z,20.90
2019-04-04T11:01:19.420Z,21.00
2019-04-04T11:03:20.785Z,21.10
2019-04-04T11:05:22.153Z,21.00
2019-04-04T11:07:23.536Z,21.10
2019-04-04T11:09:24.885Z,21.20
2019-04-04T11:11:26.222Z,21.30
2019-04-04T11:13:33.270Z,21.40
2019-04-04T11:15:30.976Z,21.60
2019-04-04T11:17:32.334Z,21.60
2019-04-04T11:19:33.704Z,21.50
2019-04-04T11:21:35.083Z,21.60
2019-04-04T11:23:36.427Z,21.70
2019-04-04T11:25:37.803Z,21.90
2019-04-04T11:27:39.191Z,21.60
2019-04-04T11:29:40.566Z,21.50
2019-04-04T11:31:41.913Z,21.60
2019-04-04T11:33:43.296Z,21.70
2019-04-04T11:35:44.666Z,21.70
2019-04-04T11:37:46.014Z,21.70
2019-04-04T11:39:54.449Z,21.60
2019-04-04T11:41:50.643Z,21.50
2019-04-04T11:43:51.991Z,21.40
2019-04-04T11:45:53.392Z,21.30
2019-04-04T11:47:54.783Z,21.30
2019-04-04T11:49:56.131Z,21.50
2019-04-04T11:51:57.503Z,21.80
2019-04-04T11:53:58.871Z,21.90
2019-04-04T11:56:00.225Z,22.20
2019-04-04T11:58:01.729Z,22.40
2019-04-04T12:00:06.482Z,22.50
2019-04-04T12:02:07.830Z,22.60
2019-04-04T12:04:09.239Z,22.70
2019-04-04T12:06:10.613Z,22.90
2019-04-04T12:08:11.958Z,22.80
2019-04-04T12:10:15.334Z,22.80
2019-04-04T12:12:16.724Z,22.90
2019-04-04T12:14:18.085Z,23.00
2019-04-04T12:16:19.441Z,23.10
2019-04-04T12:18:20.834Z,23.20
2019-04-04T12:20:22.198Z,23.20
2019-04-04T12:22:23.580Z,23.10
2019-04-04T12:24:24.924Z,23.00
2019-04-04T12:26:26.279Z,23.00
2019-04-04T12:28:27.654Z,23.10
2019-04-04T12:30:28.997Z,23.30
2019-04-04T12:32:30.374Z,23.30
2019-04-04T12:34:31.751Z,23.30
2019-04-04T12:36:33.127Z,23.30
2019-04-04T12:38:34.495Z,23.50
2019-04-04T12:40:35.891Z,23.50
2019-04-04T12:42:37.233Z,23.60
2019-04-04T12:44:38.622Z,23.50
2019-04-04T12:46:42.375Z,23.40
2019-04-04T12:48:43.246Z,23.40
2019-04-04T12:50:44.620Z,23.50
2019-04-04T12:52:45.994Z,23.30
2019-04-04T12:54:47.339Z,23.40
2019-04-04T12:56:48.716Z,23.40
2019-04-04T12:58:50.206Z,23.30
2019-04-04T13:00:51.581Z,23.00
2019-04-04T13:02:52.955Z,23.00
2019-04-04T13:04:54.304Z,23.00
2019-04-04T13:06:55.685Z,23.20
2019-04-04T13:08:57.058Z,23.30
2019-04-04T13:10:58.533Z,23.00
2019-04-04T13:12:59.901Z,22.80
2019-04-04T13:15:01.385Z,22.60
2019-04-04T13:17:02.724Z,22.50
2019-04-04T13:19:04.099Z,22.90
2019-04-04T13:21:05.452Z,23.20
2019-04-04T13:23:06.801Z,23.60
2019-04-04T13:25:08.876Z,23.90
2019-04-04T13:27:10.228Z,24.10
2019-04-04T13:29:11.592Z,24.30
2019-04-04T13:31:13.045Z,24.30
2019-04-04T13:33:14.395Z,24.50
2019-04-04T13:35:15.789Z,24.40
2019-04-04T13:37:17.163Z,24.70
2019-04-04T13:39:18.552Z,24.80
2019-04-04T13:41:22.267Z,24.80
2019-04-04T13:43:23.279Z,24.70
2019-04-04T13:45:25.391Z,24.90
2019-04-04T13:47:27.468Z,25.00
2019-04-04T13:49:28.811Z,25.00
2019-04-04T13:51:30.165Z,25.10
2019-04-04T13:53:31.561Z,25.20
2019-04-04T13:55:32.906Z,25.20
2019-04-04T13:57:34.251Z,25.00
2019-04-04T13:59:35.639Z,24.90
2019-04-04T14:01:36.987Z,24.60
2019-04-04T14:03:38.381Z,24.30
2019-04-04T14:05:39.729Z,24.10
2019-04-04T14:07:43.638Z,23.90
2019-04-04T14:09:45.280Z,24.10
2019-04-04T14:11:46.725Z,24.20
2019-04-04T14:13:49.524Z,24.20
2019-04-04T14:15:51.058Z,24.20
2019-04-04T14:17:52.447Z,24.30
2019-04-04T14:19:53.813Z,24.30
2019-04-04T14:21:55.200Z,24.40
2019-04-04T14:23:56.972Z,24.30
2019-04-04T14:25:59.895Z,24.20
2019-04-04T14:28:01.790Z,24.20
2019-04-04T14:30:07.559Z,24.10
2019-04-04T14:32:08.941Z,24.20
2019-04-04T14:34:11.676Z,24.30
2019-04-04T14:36:13.575Z,24.10
2019-04-04T14:38:14.961Z,24.00
2019-04-04T14:40:16.327Z,24.10
2019-04-04T14:42:17.665Z,24.00
2019-04-04T14:44:19.241Z,23.80
2019-04-04T14:46:20.593Z,23.90
2019-04-04T14:48:21.939Z,23.80
2019-04-04T14:50:23.313Z,23.70
2019-04-04T14:52:24.657Z,23.30
2019-04-04T14:54:28.925Z,23.20
2019-04-04T14:56:29.477Z,23.30
2019-04-04T14:58:31.052Z,23.10
2019-04-04T15:00:32.699Z,23.20
2019-04-04T15:02:34.079Z,23.30
2019-04-04T15:04:35.430Z,23.30
2019-04-04T15:06:36.772Z,23.70
2019-04-04T15:08:38.149Z,23.70
2019-04-04T15:10:39.507Z,23.80
2019-04-04T15:12:40.867Z,24.10
2019-04-04T15:14:42.257Z,24.50
2019-04-04T15:16:43.617Z,24.50
2019-04-04T15:18:45.674Z,24.60
2019-04-04T15:20:47.074Z,25.10
2019-04-04T15:22:48.418Z,25.50
2019-04-04T15:24:49.763Z,25.60
2019-04-04T15:26:51.138Z,25.60
2019-04-04T15:28:52.491Z,25.50
2019-04-04T15:30:53.872Z,25.60
2019-04-04T15:32:55.245Z,25.60
2019-04-04T15:34:56.605Z,25.60
2019-04-04T15:36:57.989Z,25.80
2019-04-04T15:38:59.353Z,25.40
2019-04-04T15:41:00.833Z,25.30
2019-04-04T15:43:02.259Z,25.30
2019-04-04T15:45:05.116Z,24.90
2019-04-04T15:47:06.460Z,24.90
2019-04-04T15:49:07.852Z,25.00
2019-04-04T15:51:09.217Z,25.00
2019-04-04T15:53:10.574Z,25.10
2019-04-04T15:55:12.242Z,25.10
2019-04-04T15:57:13.614Z,25.10
2019-04-04T15:59:14.954Z,25.00
2019-04-04T16:01:16.332Z,25.10
2019-04-04T16:03:17.682Z,25.40
2019-04-04T16:05:19.174Z,25.30
2019-04-04T16:07:20.529Z,25.10
2019-04-04T16:09:21.875Z,24.50
2019-04-04T16:11:23.271Z,24.00
2019-04-04T16:13:24.629Z,23.80
2019-04-04T16:15:26.201Z,23.30
2019-04-04T16:17:27.562Z,23.10
2019-04-04T16:19:28.914Z,22.90
2019-04-04T16:21:30.291Z,22.80
2019-04-04T16:23:31.636Z,22.90
2019-04-04T16:25:32.979Z,22.80
2019-04-04T16:27:34.414Z,22.90
2019-04-04T16:29:35.779Z,23.30
2019-04-04T16:31:37.148Z,23.40
2019-04-04T16:33:38.551Z,23.50
2019-04-04T16:35:39.892Z,23.80
2019-04-04T16:37:41.277Z,23.80
2019-04-04T16:39:42.626Z,23.70
2019-04-04T16:41:44.025Z,23.80
2019-04-04T16:43:45.381Z,23.80
2019-04-04T16:45:46.726Z,23.80
2019-04-04T16:47:48.124Z,23.80
2019-04-04T16:49:49.467Z,23.80
2019-04-04T16:51:50.811Z,23.60
2019-04-04T16:53:52.199Z,23.30
2019-04-04T16:55:53.558Z,23.50
2019-04-04T16:57:54.925Z,23.40
2019-04-04T16:59:56.307Z,23.20
2019-04-04T17:01:57.651Z,22.90
2019-04-04T17:04:01.789Z,22.90
2019-04-04T17:06:02.581Z,22.70
2019-04-04T17:08:04.028Z,22.50
2019-04-04T17:10:07.874Z,22.30
2019-04-04T17:12:14.833Z,22.20
2019-04-04T17:14:12.612Z,22.10
2019-04-04T17:16:13.973Z,21.80
2019-04-04T17:18:15.365Z,21.60
2019-04-04T17:20:16.809Z,21.40
2019-04-04T17:22:18.188Z,21.40
2019-04-04T17:24:19.541Z,21.20
2019-04-04T17:26:20.887Z,21.00
2019-04-04T17:28:22.545Z,20.90
2019-04-04T17:30:24.234Z,20.70
2019-04-04T17:32:25.972Z,20.50
2019-04-04T17:34:27.493Z,20.40
2019-04-04T17:36:28.855Z,20.30
2019-04-04T17:38:30.522Z,20.10
2019-04-04T17:40:32.238Z,20.00
2019-04-04T17:42:34.464Z,19.90
2019-04-04T17:44:35.899Z,19.70
2019-04-04T17:46:37.277Z,19.50
2019-04-04T17:48:39.025Z,19.20
2019-04-04T17:50:40.482Z,19.20
2019-04-04T17:52:42.367Z,19.20
2019-04-04T17:54:44.004Z,19.10
2019-04-04T17:56:45.520Z,18.90
2019-04-04T17:58:47.133Z,18.70
2019-04-04T18:00:48.541Z,18.80
2019-04-04T18:02:49.872Z,18.70
2019-04-04T18:04:51.256Z,18.70
2019-04-04T18:06:52.607Z,18.60
2019-04-04T18:08:53.959Z,18.50
2019-04-04T18:10:55.341Z,18.40
2019-04-04T18:12:56.710Z,18.20
2019-04-04T18:14:58.054Z,18.20
2019-04-04T18:16:59.446Z,18.10
2019-04-04T18:19:00.816Z,18.10
2019-04-04T18:21:02.196Z,18.10
2019-04-04T18:23:03.581Z,18.10
2019-04-04T18:25:05.438Z,17.90
2019-04-04T18:27:06.793Z,17.80
2019-04-04T18:29:08.175Z,17.70
2019-04-04T18:31:09.528Z,17.70
2019-04-04T18:33:10.875Z,17.60
2019-04-04T18:35:12.893Z,17.60
2019-04-04T18:37:14.325Z,17.60
2019-04-04T18:39:15.677Z,17.50
2019-04-04T18:41:17.073Z,17.40
2019-04-04T18:43:18.418Z,17.30
2019-04-04T18:45:19.771Z,17.20
2019-04-04T18:47:21.156Z,17.20
2019-04-04T18:49:22.524Z,17.20
2019-04-04T18:51:23.937Z,17.10
2019-04-04T18:53:25.299Z,17.00
2019-04-04T18:55:26.649Z,16.90
2019-04-04T18:57:28.036Z,16.90
2019-04-04T18:59:29.492Z,16.70
2019-04-04T19:01:30.871Z,16.50
2019-04-04T19:03:32.215Z,16.60
2019-04-04T19:05:33.632Z,16.40
2019-04-04T19:07:39.470Z,16.50
2019-04-04T19:09:38.418Z,16.50
2019-04-04T19:11:40.101Z,16.40
2019-04-04T19:13:44.476Z,16.30
2019-04-04T19:15:44.833Z,16.20
2019-04-04T19:17:46.206Z,16.10
2019-04-04T19:19:47.553Z,16.00
2019-04-04T19:21:48.927Z,16.00
2019-04-04T19:23:50.291Z,16.00
2019-04-04T19:25:51.661Z,15.90
2019-04-04T19:27:53.016Z,15.90
2019-04-04T19:29:54.410Z,15.90
2019-04-04T19:31:55.770Z,15.80
2019-04-04T19:33:57.347Z,15.80
2019-04-04T19:35:58.755Z,15.80
2019-04-04T19:38:00.684Z,15.70
2019-04-04T19:40:04.593Z,15.60
2019-04-04T19:42:05.960Z,15.60
2019-04-04T19:44:07.522Z,15.60
2019-04-04T19:46:08.887Z,15.60
2019-04-04T19:48:10.263Z,15.60
2019-04-04T19:50:12.119Z,15.60
2019-04-04T19:52:13.498Z,15.50
2019-04-04T19:54:14.877Z,15.50
2019-04-04T19:56:16.242Z,15.50
2019-04-04T19:58:17.630Z,15.40
2019-04-04T20:00:19.322Z,15.40
2019-04-04T20:02:20.838Z,15.40
2019-04-04T20:04:22.241Z,15.40
2019-04-04T20:06:23.593Z,15.30
2019-04-04T20:08:24.942Z,15.30
2019-04-04T20:10:26.315Z,15.20
2019-04-04T20:12:27.697Z,15.10
2019-04-04T20:14:29.235Z,15.10
2019-04-04T20:16:30.594Z,15.00
2019-04-04T20:18:31.974Z,15.00
2019-04-04T20:20:33.328Z,15.00
2019-04-04T20:22:34.662Z,15.00
2019-04-04T20:24:36.053Z,15.00
2019-04-04T20:26:37.428Z,15.00
2019-04-04T20:28:40.131Z,14.90
2019-04-04T20:30:41.852Z,14.90
2019-04-04T20:32:43.199Z,14.90
2019-04-04T20:34:44.552Z,14.80
2019-04-04T20:36:45.933Z,14.80
2019-04-04T20:38:47.293Z,14.80
2019-04-04T20:40:48.637Z,14.80
2019-04-04T20:42:50.040Z,14.70
2019-04-04T20:44:51.393Z,14.70
2019-04-04T20:46:52.763Z,14.60
2019-04-04T20:48:54.108Z,14.70
2019-04-04T20:50:55.593Z,14.60
2019-04-04T20:52:56.957Z,14.60
2019-04-04T20:54:58.432Z,14.60
2019-04-04T20:56:59.798Z,14.60
2019-04-04T20:59:01.169Z,14.60
2019-04-04T21:01:02.631Z,14.60
2019-04-04T21:03:03.974Z,14.50
2019-04-04T21:05:06.160Z,14.50
2019-04-04T21:07:07.527Z,14.50
2019-04-04T21:09:08.901Z,14.40
2019-04-04T21:11:10.358Z,14.40
2019-04-04T21:13:11.716Z,14.40
2019-04-04T21:15:13.734Z,14.30
2019-04-04T21:17:15.095Z,14.30
2019-04-04T21:19:16.467Z,14.30
2019-04-04T21:21:17.818Z,14.20
2019-04-04T21:23:21.315Z,14.20
2019-04-04T21:25:22.700Z,14.20
2019-04-04T21:27:24.057Z,14.20
2019-04-04T21:29:25.472Z,14.10
2019-04-04T21:31:26.800Z,14.10
2019-04-04T21:33:28.225Z,14.10
2019-04-04T21:35:29.569Z,14.10
2019-04-04T21:37:30.962Z,14.10
2019-04-04T21:39:32.337Z,14.10
2019-04-04T21:41:33.682Z,14.00
2019-04-04T21:43:37.021Z,14.00
2019-04-04T21:45:38.383Z,14.00
2019-04-04T21:47:39.923Z,14.00
2019-04-04T21:49:41.293Z,13.90
2019-04-04T21:51:42.635Z,13.90
2019-04-04T21:53:44.011Z,13.90
2019-04-04T21:55:45.379Z,13.90
2019-04-04T21:57:46.730Z,13.90
2019-04-04T21:59:48.105Z,13.90
2019-04-04T22:01:49.672Z,13.80
2019-04-04T22:03:51.291Z,13.80
2019-04-04T22:05:52.679Z,13.80
2019-04-04T22:07:54.017Z,13.80
2019-04-04T22:09:55.419Z,13.70
2019-04-04T22:11:56.986Z,13.70
2019-04-04T22:13:58.328Z,13.70
2019-04-04T22:15:59.670Z,13.60
2019-04-04T22:18:01.041Z,13.60
2019-04-04T22:20:05.209Z,13.60
2019-04-04T22:22:06.592Z,13.50
2019-04-04T22:24:07.951Z,13.50
2019-04-04T22:26:09.339Z,13.50
2019-04-04T22:28:10.694Z,13.50
2019-04-04T22:30:12.440Z,13.40
2019-04-04T22:32:13.816Z,13.40
2019-04-04T22:34:15.262Z,13.30
2019-04-04T22:36:16.646Z,13.30
2019-04-04T22:38:18.007Z,13.30
2019-04-04T22:40:19.363Z,13.30
2019-04-04T22:42:21.114Z,13.20
2019-04-04T22:44:34.021Z,13.20
2019-04-04T22:46:25.739Z,13.20
2019-04-04T22:48:27.129Z,13.10
2019-04-04T22:50:28.477Z,13.10
2019-04-04T22:52:29.821Z,13.10
2019-04-04T22:54:31.199Z,13.00
2019-04-04T22:56:32.564Z,12.90
2019-04-04T22:58:33.943Z,12.90
2019-04-04T23:00:35.390Z,12.80
2019-04-04T23:02:36.737Z,12.80
2019-04-04T23:04:38.126Z,12.70
2019-04-04T23:06:39.506Z,12.70
2019-04-04T23:08:40.887Z,12.70
2019-04-04T23:10:42.353Z,12.70
2019-04-04T23:12:43.693Z,12.60
2019-04-04T23:14:48.313Z,12.70
2019-04-04T23:16:48.348Z,12.60
2019-04-04T23:18:49.721Z,12.50
2019-04-04T23:20:51.323Z,12.50
2019-04-04T23:22:53.304Z,12.40
2019-04-04T23:24:54.931Z,12.30
2019-04-04T23:26:56.300Z,12.30
2019-04-04T23:28:57.692Z,12.20
2019-04-04T23:30:59.037Z,12.20
2019-04-04T23:33:00.438Z,12.20
2019-04-04T23:35:02.590Z,12.10
2019-04-04T23:37:03.937Z,12.10
2019-04-04T23:39:05.808Z,12.00
2019-04-04T23:41:07.175Z,11.90
2019-04-04T23:43:08.559Z,11.90
2019-04-04T23:45:10.184Z,11.90
2019-04-04T23:47:11.559Z,11.90
2019-04-04T23:49:12.940Z,11.90
2019-04-04T23:51:14.511Z,11.90
2019-04-04T23:53:15.854Z,11.90
2019-04-04T23:55:17.323Z,11.90
2019-04-04T23:57:18.695Z,11.80
2019-04-04T23:59:20.054Z,11.80
